Terminal Aerodrome Forecast
Issued by NWS Bismarck, ND

Home | Current Version | Previous Version | Text Only | Print | Product List | Glossary On
Versions: 1 2 3 4 5 6 7 8 9 10 11 12 13 14 15 16 17 18 19 20 21
000
FTUS43 KBIS 020500
TAFISN
TAF
KISN 020531Z 0206/0306 25005KT P6SM SCT070
     FM020900 23006KT P6SM SCT040 BKN070
     FM021500 27013KT P6SM -SHRA SCT025 BKN040 OVC070
     FM021800 30022G32KT P6SM SCT040 BKN060
     FM030300 30015KT P6SM BKN050 BKN080=

USA.gov is the U.S. government's official web portal to all federal, state and local government web resources and services.